Captain Ed — WDF6338 — position and weather

sailwx.info

Track history (hours):
 
Tides and Currents Weather Stations Pressure Air Temp Water Temp Dewpoint Dewpoint Depression Visibility Wind Speed Wind Dir Waves Ship Positions

Captain Ed

Owner: Norfolk Dredging Company, Chesapeake, VA. More information available from US FCC via Universal Licensing System and Coast Guard Vessel Documentation Center.

Last reported at 2016-Feb-14 03:33 UTC. Time now 2016-Feb-14 03:51 UTC.
Position N 38°48' W 075°06'.

Length 21 m; draft 3 m.

Type: Tug. MMSI: 367473210.

Date/timePositionNaut miles runAvg speedWind from/ knotsBaromVisibWave heightAir tempDewpointWater temp
2016-Feb-14 03:33N 38°48' W 075°06'0 0.0
2016-Feb-14 02:33N 38°48' W 075°06'0 0.0
2016-Feb-14 01:33N 38°48' W 075°06'0 0.0
2016-Feb-14 00:33N 38°48' W 075°06'0 0.0
2016-Feb-13 23:33N 38°48' W 075°06'0 0.0
2016-Feb-13 22:33N 38°48' W 075°06'0 0.0
2016-Feb-13 21:33N 38°48' W 075°06'0 0.0
2016-Feb-13 20:33N 38°48' W 075°06'0 0.0
2016-Feb-13 19:33N 38°48' W 075°06'0 0.0
2016-Feb-13 18:33N 38°48' W 075°06'0 0.0
2016-Feb-13 17:33N 38°48' W 075°06'0 0.0
2016-Feb-13 16:33N 38°48' W 075°06'0 0.0
2016-Feb-13 15:33N 38°48' W 075°06'0 0.0
2016-Feb-13 14:33N 38°48' W 075°06'0 0.0
2016-Feb-13 13:33N 38°48' W 075°06'0 0.0
2016-Feb-13 12:33N 38°48' W 075°06'0 0.0
2016-Feb-13 11:33N 38°48' W 075°06'0 0.0
2016-Feb-13 10:33N 38°48' W 075°06'0 0.0
2016-Feb-13 09:33N 38°48' W 075°06'0 0.0
2016-Feb-13 08:33N 38°48' W 075°06'0 0.0
2016-Feb-13 07:33N 38°48' W 075°06'0 0.0
2016-Feb-13 06:33N 38°48' W 075°06'0 0.0
2016-Feb-13 05:33N 38°48' W 075°06'0 0.0
2016-Feb-13 04:33N 38°48' W 075°06'1 1.4
2016-Feb-13 03:33N 38°49' W 075°05'5 5.0
2016-Feb-13 02:33N 38°54' W 075°08'5 5.2
2016-Feb-13 01:33N 38°58' W 075°12'54 1.2
2016-Feb-11 04:06N 39°03' W 076°22'3 5.7
2016-Feb-11 03:33N 38°60' W 076°23'126 5.7
2016-Feb-10 05:33N 36°54' W 076°20'2 1.6
2016-Feb-10 04:33N 36°52' W 076°20'5 4.6
2016-Feb-10 03:33N 36°49' W 076°17'3 3.0
2016-Feb-10 02:33N 36°46' W 076°18'1 1.0
2016-Feb-10 01:33N 36°45' W 076°18'0 0.0
2016-Feb-10 00:33N 36°45' W 076°18'0 0.0
2016-Feb-09 23:33N 36°45' W 076°18'0 0.0
2016-Feb-09 22:33N 36°45' W 076°18'0 0.0
2016-Feb-09 21:26N 36°45' W 076°18'0 0.0
2016-Feb-09 20:31N 36°45' W 076°18'0 0.0
2016-Feb-09 19:33N 36°45' W 076°18'0 0.0
2016-Feb-09 18:33N 36°45' W 076°18'0 0.0
2016-Feb-09 17:33N 36°45' W 076°18'0 0.0
2016-Feb-09 16:33N 36°45' W 076°18'0 0.0
2016-Feb-09 15:33N 36°45' W 076°18'0 0.0
2016-Feb-09 00:33N 36°45' W 076°18'0 0.0
2016-Feb-08 23:33N 36°45' W 076°18'0 0.0
2016-Feb-08 22:33N 36°45' W 076°18'0 0.0
2016-Feb-08 21:33N 36°45' W 076°18'0 0.0
2016-Feb-08 20:33N 36°45' W 076°18'1 1.4
2016-Feb-08 19:33N 36°44' W 076°17'2 1.9
2016-Feb-08 18:33N 36°43' W 076°14'  
Track history (hours):
 
Tides and Currents Weather Stations Pressure Air Temp Water Temp Dewpoint Dewpoint Depression Visibility Wind Speed Wind Dir Waves Ship Positions

Captain Ed

Owner: Norfolk Dredging Company, Chesapeake, VA. More information available from US FCC via Universal Licensing System and Coast Guard Vessel Documentation Center.

Last reported at 2016-Feb-14 03:33 UTC. Time now 2016-Feb-14 03:51 UTC.
Position N 38°48' W 075°06'.

Length 21 m; draft 3 m.

Type: Tug. MMSI: 367473210.

Date/timePositionNaut miles runAvg speedWind from/ knotsBaromVisibWave heightAir tempDewpointWater temp
2016-Feb-14 03:33N 38°48' W 075°06'0 0.0
2016-Feb-14 02:33N 38°48' W 075°06'0 0.0
2016-Feb-14 01:33N 38°48' W 075°06'0 0.0
2016-Feb-14 00:33N 38°48' W 075°06'0 0.0
2016-Feb-13 23:33N 38°48' W 075°06'0 0.0
2016-Feb-13 22:33N 38°48' W 075°06'0 0.0
2016-Feb-13 21:33N 38°48' W 075°06'0 0.0
2016-Feb-13 20:33N 38°48' W 075°06'0 0.0
2016-Feb-13 19:33N 38°48' W 075°06'0 0.0
2016-Feb-13 18:33N 38°48' W 075°06'0 0.0
2016-Feb-13 17:33N 38°48' W 075°06'0 0.0
2016-Feb-13 16:33N 38°48' W 075°06'0 0.0
2016-Feb-13 15:33N 38°48' W 075°06'0 0.0
2016-Feb-13 14:33N 38°48' W 075°06'0 0.0
2016-Feb-13 13:33N 38°48' W 075°06'0 0.0
2016-Feb-13 12:33N 38°48' W 075°06'0 0.0
2016-Feb-13 11:33N 38°48' W 075°06'0 0.0
2016-Feb-13 10:33N 38°48' W 075°06'0 0.0
2016-Feb-13 09:33N 38°48' W 075°06'0 0.0
2016-Feb-13 08:33N 38°48' W 075°06'0 0.0
2016-Feb-13 07:33N 38°48' W 075°06'0 0.0
2016-Feb-13 06:33N 38°48' W 075°06'0 0.0
2016-Feb-13 05:33N 38°48' W 075°06'0 0.0
2016-Feb-13 04:33N 38°48' W 075°06'1 1.4
2016-Feb-13 03:33N 38°49' W 075°05'5 5.0
2016-Feb-13 02:33N 38°54' W 075°08'5 5.2
2016-Feb-13 01:33N 38°58' W 075°12'54 1.2
2016-Feb-11 04:06N 39°03' W 076°22'3 5.7
2016-Feb-11 03:33N 38°60' W 076°23'126 5.7
2016-Feb-10 05:33N 36°54' W 076°20'2 1.6
2016-Feb-10 04:33N 36°52' W 076°20'5 4.6
2016-Feb-10 03:33N 36°49' W 076°17'3 3.0
2016-Feb-10 02:33N 36°46' W 076°18'1 1.0
2016-Feb-10 01:33N 36°45' W 076°18'0 0.0
2016-Feb-10 00:33N 36°45' W 076°18'0 0.0
2016-Feb-09 23:33N 36°45' W 076°18'0 0.0
2016-Feb-09 22:33N 36°45' W 076°18'0 0.0
2016-Feb-09 21:26N 36°45' W 076°18'0 0.0
2016-Feb-09 20:31N 36°45' W 076°18'0 0.0
2016-Feb-09 19:33N 36°45' W 076°18'0 0.0
2016-Feb-09 18:33N 36°45' W 076°18'0 0.0
2016-Feb-09 17:33N 36°45' W 076°18'0 0.0
2016-Feb-09 16:33N 36°45' W 076°18'0 0.0
2016-Feb-09 15:33N 36°45' W 076°18'0 0.0
2016-Feb-09 00:33N 36°45' W 076°18'0 0.0
2016-Feb-08 23:33N 36°45' W 076°18'0 0.0
2016-Feb-08 22:33N 36°45' W 076°18'0 0.0
2016-Feb-08 21:33N 36°45' W 076°18'0 0.0
2016-Feb-08 20:33N 36°45' W 076°18'1 1.4
2016-Feb-08 19:33N 36°44' W 076°17'2 1.9
2016-Feb-08 18:33N 36°43' W 076°14'  

Dump ship's entire track history